Time;durP1;ratioP1;P1;durP2;ratioP2;P2;SDS_P1;SDS_P2;PMS_P1;PMS_P2;Temp;Humidity;BMP_temperature;BMP_pressure;BME280_temperature;BME280_humidity;BME280_pressure;Samples;Min_cycle;Max_cycle;Signal;HPM_P1;HPM_P2
2024/02/24 00:00:52;;;;;;;1.70;1.60;;;;;;;;;;5000372;28;20435;-82
2024/02/24 00:03:18;;;;;;;3.90;1.20;;;;;;;;;;4981673;28;20525;-82
2024/02/24 00:05:44;;;;;;;1.73;1.17;;;;;;;;;;4996025;28;20473;-81
2024/02/24 00:08:10;;;;;;;1.90;1.30;;;;;;;;;;4996598;28;20490;-82
2024/02/24 00:10:36;;;;;;;2.05;1.30;;;;;;;;;;4981194;28;20211;-82
2024/02/24 00:13:03;;;;;;;1.73;1.10;;;;;;;;;;5001428;28;20227;-82
2024/02/24 00:15:29;;;;;;;2.78;1.27;;;;;;;;;;4999229;28;20187;-82
2024/02/24 00:17:55;;;;;;;2.17;1.10;;;;;;;;;;4997294;28;20262;-82
2024/02/24 00:20:21;;;;;;;2.63;1.10;;;;;;;;;;4999006;28;20964;-82
2024/02/24 00:22:47;;;;;;;2.22;1.38;;;;;;;;;;4996158;28;20445;-82
2024/02/24 00:25:13;;;;;;;1.50;0.97;;;;;;;;;;4998531;28;20553;-81
2024/02/24 00:27:39;;;;;;;1.65;1.15;;;;;;;;;;4995248;28;20446;-81
2024/02/24 00:30:05;;;;;;;1.27;1.10;;;;;;;;;;4997481;28;20214;-82
2024/02/24 00:32:32;;;;;;;2.78;1.50;;;;;;;;;;4980006;28;20204;-82
2024/02/24 00:34:58;;;;;;;1.35;1.17;;;;;;;;;;4996742;28;20226;-82
2024/02/24 00:37:23;;;;;;;1.57;1.30;;;;;;;;;;4992767;28;20187;-83
2024/02/24 00:39:49;;;;;;;6.60;1.30;;;;;;;;;;4996232;28;20435;-82
2024/02/24 00:42:15;;;;;;;4.53;1.47;;;;;;;;;;4989171;28;20436;-82
2024/02/24 00:44:41;;;;;;;1.60;1.17;;;;;;;;;;4985810;28;20930;-82
2024/02/24 00:47:07;;;;;;;2.07;1.60;;;;;;;;;;4998265;28;20434;-83
2024/02/24 00:49:33;;;;;;;4.70;2.08;;;;;;;;;;4991579;28;20969;-83
2024/02/24 00:51:59;;;;;;;0.90;0.80;;;;;;;;;;4994244;28;20267;-82
2024/02/24 00:54:25;;;;;;;1.57;1.33;;;;;;;;;;4983146;28;20434;-82
2024/02/24 00:56:51;;;;;;;1.97;1.37;;;;;;;;;;4998406;28;20463;-83
2024/02/24 00:59:17;;;;;;;4.13;1.97;;;;;;;;;;4999685;28;20448;-82
2024/02/24 01:01:43;;;;;;;1.93;1.30;;;;;;;;;;5002217;28;20422;-83
2024/02/24 01:04:09;;;;;;;2.07;1.37;;;;;;;;;;4997843;28;20442;-82
2024/02/24 01:06:35;;;;;;;1.60;1.50;;;;;;;;;;4998238;28;20486;-83
2024/02/24 01:09:01;;;;;;;1.80;1.30;;;;;;;;;;5007208;28;20914;-82
2024/02/24 01:11:27;;;;;;;1.42;1.33;;;;;;;;;;4988601;28;20442;-83
2024/02/24 01:13:53;;;;;;;1.80;1.50;;;;;;;;;;5003807;28;20227;-82
2024/02/24 01:16:20;;;;;;;2.85;1.20;;;;;;;;;;4997396;28;20490;-81
2024/02/24 01:18:45;;;;;;;1.45;1.23;;;;;;;;;;4997718;28;20188;-82
2024/02/24 01:21:11;;;;;;;3.70;1.40;;;;;;;;;;4995999;28;20183;-82
2024/02/24 01:23:39;;;;;;;1.45;1.20;;;;;;;;;;4982275;28;20538;-82
2024/02/24 01:26:05;;;;;;;2.05;1.00;;;;;;;;;;4998685;28;20178;-82
2024/02/24 01:28:31;;;;;;;2.10;1.80;;;;;;;;;;5007582;28;20182;-83
2024/02/24 01:30:57;;;;;;;2.77;1.57;;;;;;;;;;5001379;28;20430;-82
2024/02/24 01:33:23;;;;;;;2.07;1.43;;;;;;;;;;4997359;28;20501;-82
2024/02/24 01:35:49;;;;;;;1.90;1.50;;;;;;;;;;4997359;28;20989;-82
2024/02/24 01:38:14;;;;;;;1.77;1.40;;;;;;;;;;4997232;28;20441;-82
2024/02/24 01:40:40;;;;;;;2.10;1.60;;;;;;;;;;5002644;28;20419;-83
2024/02/24 01:43:28;;;;;;;1.70;1.40;;;;;;;;;;5001904;28;20441;-82
2024/02/24 01:45:55;;;;;;;1.90;1.20;;;;;;;;;;4998033;28;20310;-82
2024/02/24 01:48:21;;;;;;;1.92;1.45;;;;;;;;;;4996661;28;20175;-82
2024/02/24 01:50:49;;;;;;;1.88;1.50;;;;;;;;;;4981137;28;20267;-82
2024/02/24 01:53:15;;;;;;;1.45;1.08;;;;;;;;;;4997641;28;20578;-81
2024/02/24 01:55:42;;;;;;;2.05;1.38;;;;;;;;;;4976739;28;20196;-83
2024/02/24 01:58:09;;;;;;;1.83;1.35;;;;;;;;;;4996287;28;20183;-82
2024/02/24 02:00:35;;;;;;;2.15;1.42;;;;;;;;;;4997011;28;20180;-81
2024/02/24 02:03:01;;;;;;;1.23;0.95;;;;;;;;;;4995327;28;20203;-82
2024/02/24 02:05:27;;;;;;;1.23;1.05;;;;;;;;;;4997169;28;20179;-82
2024/02/24 02:07:53;;;;;;;1.93;1.60;;;;;;;;;;5004504;28;20365;-82
2024/02/24 02:10:19;;;;;;;2.38;1.30;;;;;;;;;;4996751;28;20435;-83
2024/02/24 02:12:45;;;;;;;1.48;1.25;;;;;;;;;;4996139;28;20223;-82
2024/02/24 02:15:11;;;;;;;2.70;1.67;;;;;;;;;;4998100;28;20198;-82
2024/02/24 02:17:37;;;;;;;1.55;1.25;;;;;;;;;;5001846;28;20426;-82
2024/02/24 02:20:04;;;;;;;1.13;0.85;;;;;;;;;;4998072;28;20238;-83
2024/02/24 02:22:31;;;;;;;1.73;1.30;;;;;;;;;;4996150;28;20186;-82
2024/02/24 02:24:57;;;;;;;1.58;1.00;;;;;;;;;;4978715;28;20214;-82
2024/02/24 02:27:23;;;;;;;1.55;1.13;;;;;;;;;;4996575;28;20530;-82
2024/02/24 02:29:49;;;;;;;2.60;1.33;;;;;;;;;;4994315;28;20186;-82
2024/02/24 02:32:15;;;;;;;2.20;1.10;;;;;;;;;;4994094;28;20930;-82
2024/02/24 02:34:41;;;;;;;1.55;1.33;;;;;;;;;;4994862;28;20434;-83
2024/02/24 02:37:07;;;;;;;1.20;0.93;;;;;;;;;;4995987;28;20193;-82
2024/02/24 02:39:34;;;;;;;1.42;0.90;;;;;;;;;;4997894;28;20187;-82
2024/02/24 02:42:00;;;;;;;2.28;1.15;;;;;;;;;;4996471;28;20646;-82
2024/02/24 02:44:26;;;;;;;2.13;1.00;;;;;;;;;;5003452;28;20188;-82
2024/02/24 02:46:52;;;;;;;1.67;1.13;;;;;;;;;;4999908;28;20820;-82
2024/02/24 02:49:19;;;;;;;1.43;1.07;;;;;;;;;;4996305;28;20415;-82
2024/02/24 02:51:45;;;;;;;1.05;0.82;;;;;;;;;;4992713;28;20517;-82
2024/02/24 02:54:11;;;;;;;1.30;1.02;;;;;;;;;;4994254;28;20243;-82
2024/02/24 02:56:37;;;;;;;2.30;0.93;;;;;;;;;;5002423;28;20195;-82
2024/02/24 02:59:03;;;;;;;0.70;0.60;;;;;;;;;;5001159;28;20444;-82
2024/02/24 03:01:29;;;;;;;0.85;0.70;;;;;;;;;;5000859;28;20426;-82
2024/02/24 03:03:55;;;;;;;0.90;0.70;;;;;;;;;;5004427;28;20238;-82
2024/02/24 03:06:21;;;;;;;2.07;0.90;;;;;;;;;;5005818;28;20231;-82
2024/02/24 03:08:47;;;;;;;1.50;0.90;;;;;;;;;;5002143;28;20433;-82
2024/02/24 03:11:17;;;;;;;1.25;0.82;;;;;;;;;;5001684;28;20738;-82
2024/02/24 03:13:43;;;;;;;1.27;1.17;;;;;;;;;;4997853;28;20215;-82
2024/02/24 03:16:09;;;;;;;1.13;0.77;;;;;;;;;;5001943;28;20189;-82
2024/02/24 03:18:35;;;;;;;2.08;1.25;;;;;;;;;;5002167;28;20258;-82
2024/02/24 03:21:01;;;;;;;1.23;0.80;;;;;;;;;;5002557;28;20654;-82
2024/02/24 03:23:26;;;;;;;1.15;1.00;;;;;;;;;;5001118;28;20441;-83
2024/02/24 03:25:52;;;;;;;1.17;0.85;;;;;;;;;;5002483;28;20616;-82
2024/02/24 03:28:18;;;;;;;1.20;1.00;;;;;;;;;;5002139;28;20238;-82
2024/02/24 03:30:44;;;;;;;1.40;0.70;;;;;;;;;;4989089;28;20508;-81
2024/02/24 03:33:12;;;;;;;2.15;0.70;;;;;;;;;;4989901;28;20974;-82
2024/02/24 03:35:38;;;;;;;2.55;0.70;;;;;;;;;;5000318;28;20187;-82
2024/02/24 03:38:04;;;;;;;1.00;0.70;;;;;;;;;;5000158;28;20207;-82
2024/02/24 03:40:30;;;;;;;1.00;0.70;;;;;;;;;;5000680;28;20228;-82
2024/02/24 03:42:56;;;;;;;1.30;0.93;;;;;;;;;;5002525;28;20562;-82
2024/02/24 03:45:22;;;;;;;0.95;0.80;;;;;;;;;;5001794;28;20444;-82
2024/02/24 03:47:48;;;;;;;0.90;0.70;;;;;;;;;;5001860;28;20195;-82
2024/02/24 03:50:14;;;;;;;1.10;0.80;;;;;;;;;;4994944;28;20190;-82
2024/02/24 03:52:40;;;;;;;1.80;0.90;;;;;;;;;;4986677;28;20237;-82
2024/02/24 03:55:07;;;;;;;1.17;0.88;;;;;;;;;;4985352;28;20945;-82
2024/02/24 03:57:33;;;;;;;1.20;0.80;;;;;;;;;;4989423;28;20179;-81
2024/02/24 03:59:59;;;;;;;1.00;0.80;;;;;;;;;;5001994;28;20187;-82
2024/02/24 04:02:25;;;;;;;2.95;0.90;;;;;;;;;;5000693;28;20187;-82
2024/02/24 04:04:52;;;;;;;0.95;0.73;;;;;;;;;;4996755;28;20185;-82
2024/02/24 04:07:18;;;;;;;2.05;0.80;;;;;;;;;;4997202;28;20227;-82
2024/02/24 04:09:44;;;;;;;1.23;0.80;;;;;;;;;;5002670;28;20187;-82
2024/02/24 04:12:10;;;;;;;1.63;0.90;;;;;;;;;;4998309;28;20438;-83
2024/02/24 04:14:36;;;;;;;0.95;0.80;;;;;;;;;;5005256;28;20201;-82
2024/02/24 04:17:02;;;;;;;1.20;0.90;;;;;;;;;;5013121;28;20207;-83
2024/02/24 04:19:28;;;;;;;1.97;1.20;;;;;;;;;;4997189;28;20637;-83
2024/02/24 04:21:54;;;;;;;1.42;0.80;;;;;;;;;;4997180;28;20530;-83
2024/02/24 04:24:20;;;;;;;1.07;0.87;;;;;;;;;;5002209;28;20614;-83
2024/02/24 04:26:45;;;;;;;1.40;1.00;;;;;;;;;;4997909;28;20430;-83
2024/02/24 04:29:11;;;;;;;1.70;0.90;;;;;;;;;;4997042;28;20670;-83
2024/02/24 04:31:38;;;;;;;2.05;0.80;;;;;;;;;;4996688;28;20431;-83
2024/02/24 04:34:04;;;;;;;2.28;0.80;;;;;;;;;;4997836;28;20218;-83
2024/02/24 04:36:29;;;;;;;1.33;0.70;;;;;;;;;;4998378;28;20196;-82
2024/02/24 04:38:56;;;;;;;1.77;0.90;;;;;;;;;;4984441;28;20926;-82
2024/02/24 04:41:22;;;;;;;1.55;0.80;;;;;;;;;;4997159;28;20431;-83
2024/02/24 04:43:48;;;;;;;1.10;0.70;;;;;;;;;;4997774;28;20204;-82
2024/02/24 04:46:13;;;;;;;3.00;0.73;;;;;;;;;;4999504;28;20429;-83
2024/02/24 04:48:39;;;;;;;1.23;0.90;;;;;;;;;;4998128;28;20430;-83
2024/02/24 04:51:05;;;;;;;1.10;0.90;;;;;;;;;;4998112;28;20430;-82
2024/02/24 04:53:31;;;;;;;1.03;0.73;;;;;;;;;;4996282;28;20214;-82
2024/02/24 04:55:57;;;;;;;2.37;0.80;;;;;;;;;;4991078;28;20801;-82
2024/02/24 04:58:24;;;;;;;2.40;0.90;;;;;;;;;;4998686;28;20430;-82
2024/02/24 05:00:50;;;;;;;2.05;1.02;;;;;;;;;;4997039;28;20461;-82
2024/02/24 05:03:16;;;;;;;1.40;0.80;;;;;;;;;;5004185;28;20191;-82
2024/02/24 05:05:42;;;;;;;1.17;1.07;;;;;;;;;;4998352;28;20512;-82
2024/02/24 05:08:08;;;;;;;2.53;1.13;;;;;;;;;;4999667;28;20496;-81
2024/02/24 05:10:34;;;;;;;2.95;0.82;;;;;;;;;;5003004;28;20187;-83
2024/02/24 05:13:00;;;;;;;1.10;0.70;;;;;;;;;;4999057;28;20235;-82
2024/02/24 05:15:26;;;;;;;2.63;0.90;;;;;;;;;;5000893;28;20505;-83
2024/02/24 05:17:52;;;;;;;2.73;1.03;;;;;;;;;;5004511;28;20485;-83
2024/02/24 05:20:18;;;;;;;0.95;0.80;;;;;;;;;;4999923;28;20431;-83
2024/02/24 05:22:44;;;;;;;2.53;0.98;;;;;;;;;;4994682;28;20242;-83
2024/02/24 05:25:10;;;;;;;1.43;0.87;;;;;;;;;;4996766;28;20198;-83
2024/02/24 05:27:36;;;;;;;1.00;0.90;;;;;;;;;;4996691;28;20426;-83
2024/02/24 05:30:03;;;;;;;1.95;1.20;;;;;;;;;;4980583;28;20183;-82
2024/02/24 05:32:29;;;;;;;2.10;1.15;;;;;;;;;;5000804;28;20203;-81
2024/02/24 05:34:55;;;;;;;1.53;1.17;;;;;;;;;;4987477;28;20205;-83
2024/02/24 05:37:21;;;;;;;1.13;0.93;;;;;;;;;;4975813;28;20525;-83
2024/02/24 05:39:47;;;;;;;2.33;1.10;;;;;;;;;;4989096;28;20427;-83
2024/02/24 05:42:13;;;;;;;1.13;0.90;;;;;;;;;;4995509;28;20187;-82
2024/02/24 05:44:40;;;;;;;1.30;1.05;;;;;;;;;;4995033;28;20555;-83
2024/02/24 05:47:06;;;;;;;1.73;0.80;;;;;;;;;;5002499;28;20210;-83
2024/02/24 05:49:32;;;;;;;1.10;0.95;;;;;;;;;;4994412;28;20176;-82
2024/02/24 05:51:58;;;;;;;1.63;0.93;;;;;;;;;;4987122;28;20203;-83
2024/02/24 05:54:24;;;;;;;2.83;1.10;;;;;;;;;;4997844;28;20215;-85
2024/02/24 05:56:50;;;;;;;2.28;0.85;;;;;;;;;;4979177;28;20446;-85
2024/02/24 05:59:16;;;;;;;2.13;1.10;;;;;;;;;;4994921;28;20213;-84
2024/02/24 06:01:42;;;;;;;1.10;0.85;;;;;;;;;;4994926;28;20184;-84
2024/02/24 06:04:08;;;;;;;1.55;1.15;;;;;;;;;;4996726;28;20187;-83
2024/02/24 06:06:34;;;;;;;1.35;0.95;;;;;;;;;;4995509;28;20241;-84
2024/02/24 06:09:00;;;;;;;1.40;1.08;;;;;;;;;;4995973;28;20186;-84
2024/02/24 06:11:26;;;;;;;1.33;1.00;;;;;;;;;;4978682;28;20198;-83
2024/02/24 06:13:52;;;;;;;1.10;0.90;;;;;;;;;;4996300;28;20234;-82
2024/02/24 06:16:19;;;;;;;1.17;0.90;;;;;;;;;;4994463;28;20410;-82
2024/02/24 06:18:45;;;;;;;1.65;1.23;;;;;;;;;;4997062;28;20182;-84
2024/02/24 06:21:11;;;;;;;2.33;1.17;;;;;;;;;;5000410;28;20209;-83
2024/02/24 06:23:37;;;;;;;1.90;1.17;;;;;;;;;;4999577;28;20495;-83
2024/02/24 06:26:03;;;;;;;1.30;1.02;;;;;;;;;;4996897;28;20433;-83
2024/02/24 06:28:29;;;;;;;1.52;0.93;;;;;;;;;;4980189;28;20565;-83
2024/02/24 06:30:55;;;;;;;1.80;1.40;;;;;;;;;;4977667;28;20183;-83
2024/02/24 06:33:21;;;;;;;1.73;1.10;;;;;;;;;;5003496;28;20462;-83
2024/02/24 06:35:47;;;;;;;2.72;1.38;;;;;;;;;;4996556;28;20510;-84
2024/02/24 06:38:13;;;;;;;1.85;1.13;;;;;;;;;;4995016;28;20183;-83
2024/02/24 06:40:39;;;;;;;1.50;1.10;;;;;;;;;;4984860;28;20191;-84
2024/02/24 06:43:05;;;;;;;1.73;1.13;;;;;;;;;;4997151;28;20438;-83
2024/02/24 06:45:31;;;;;;;2.30;1.10;;;;;;;;;;4994400;28;20423;-84
2024/02/24 06:47:57;;;;;;;1.40;1.10;;;;;;;;;;4995734;28;20179;-83
2024/02/24 06:50:23;;;;;;;1.73;1.17;;;;;;;;;;4991954;28;20243;-83
2024/02/24 06:52:49;;;;;;;1.60;1.20;;;;;;;;;;4975205;28;20212;-84
2024/02/24 06:55:15;;;;;;;1.75;1.00;;;;;;;;;;4997832;28;20458;-83
2024/02/24 06:57:41;;;;;;;4.82;3.13;;;;;;;;;;5007106;28;20183;-84
2024/02/24 07:00:08;;;;;;;2.45;1.52;;;;;;;;;;4998520;28;20241;-84
2024/02/24 07:02:34;;;;;;;3.08;1.27;;;;;;;;;;4995212;28;20179;-84
2024/02/24 07:05:02;;;;;;;2.73;1.50;;;;;;;;;;4995869;28;20221;-83
2024/02/24 07:07:28;;;;;;;1.83;1.70;;;;;;;;;;4997235;28;21032;-84
2024/02/24 07:09:54;;;;;;;3.38;1.80;;;;;;;;;;4994981;28;20182;-84
2024/02/24 07:12:20;;;;;;;1.93;1.43;;;;;;;;;;5003789;28;20175;-83
2024/02/24 07:14:46;;;;;;;1.58;1.33;;;;;;;;;;4992345;28;20498;-83
2024/02/24 07:17:12;;;;;;;1.90;1.17;;;;;;;;;;4996176;28;20267;-84
2024/02/24 07:19:38;;;;;;;1.67;1.00;;;;;;;;;;4995964;28;20655;-85
2024/02/24 07:22:04;;;;;;;1.27;1.15;;;;;;;;;;4979485;28;20438;-83
2024/02/24 07:24:30;;;;;;;2.07;1.10;;;;;;;;;;4993027;28;20191;-84
2024/02/24 07:26:56;;;;;;;2.80;1.40;;;;;;;;;;4995457;28;20847;-84
2024/02/24 07:29:22;;;;;;;1.88;1.75;;;;;;;;;;4995337;28;20462;-84
2024/02/24 07:31:48;;;;;;;2.90;1.20;;;;;;;;;;4985519;28;20274;-83
2024/02/24 07:34:14;;;;;;;1.90;1.20;;;;;;;;;;4993628;28;21040;-83
2024/02/24 07:36:40;;;;;;;1.30;1.10;;;;;;;;;;4991074;28;20803;-83
2024/02/24 07:39:06;;;;;;;2.53;1.00;;;;;;;;;;4995348;28;20427;-82
2024/02/24 07:41:32;;;;;;;2.37;1.43;;;;;;;;;;4989945;28;20510;-83
2024/02/24 07:43:58;;;;;;;1.30;1.17;;;;;;;;;;4997618;28;20442;-82
2024/02/24 07:46:29;;;;;;;2.70;1.40;;;;;;;;;;4997029;28;20639;-83
2024/02/24 07:48:58;;;;;;;1.88;1.15;;;;;;;;;;5003147;28;20925;-83
2024/02/24 07:51:25;;;;;;;2.10;1.38;;;;;;;;;;4981286;28;20188;-82
2024/02/24 07:53:51;;;;;;;2.47;1.25;;;;;;;;;;4980318;28;20562;-83
2024/02/24 07:56:17;;;;;;;1.50;1.20;;;;;;;;;;5001010;28;20198;-83
2024/02/24 07:58:43;;;;;;;1.95;1.40;;;;;;;;;;5005988;28;20195;-82
2024/02/24 08:01:10;;;;;;;3.95;1.80;;;;;;;;;;4999209;28;20699;-83
2024/02/24 08:03:36;;;;;;;2.30;1.60;;;;;;;;;;4999128;28;20188;-83
2024/02/24 08:06:02;;;;;;;2.90;1.43;;;;;;;;;;4997030;28;20248;-83
2024/02/24 08:08:28;;;;;;;2.38;1.60;;;;;;;;;;4998157;28;20435;-84
2024/02/24 08:10:54;;;;;;;4.35;1.52;;;;;;;;;;4999192;28;20207;-83
2024/02/24 08:13:20;;;;;;;2.53;1.03;;;;;;;;;;4998712;28;20285;-84
2024/02/24 08:15:46;;;;;;;2.25;1.17;;;;;;;;;;4998460;28;20449;-83
2024/02/24 08:18:12;;;;;;;3.92;1.58;;;;;;;;;;4998916;28;20193;-83
2024/02/24 08:20:37;;;;;;;3.23;1.53;;;;;;;;;;4999843;28;20269;-83
2024/02/24 08:23:04;;;;;;;2.47;1.60;;;;;;;;;;5005976;28;20790;-82
2024/02/24 08:25:30;;;;;;;3.40;1.60;;;;;;;;;;5001560;28;20426;-82
2024/02/24 08:27:56;;;;;;;2.50;1.20;;;;;;;;;;4997975;28;20215;-81
2024/02/24 08:30:22;;;;;;;3.55;1.65;;;;;;;;;;4998210;28;20183;-83
2024/02/24 08:32:49;;;;;;;3.25;1.90;;;;;;;;;;4997414;28;20222;-82
2024/02/24 08:35:16;;;;;;;1.30;0.93;;;;;;;;;;4996867;28;21662;-82
2024/02/24 08:37:44;;;;;;;6.03;2.58;;;;;;;;;;4984427;28;20191;-82
2024/02/24 08:40:10;;;;;;;3.05;1.27;;;;;;;;;;4998563;28;20652;-82
2024/02/24 08:42:36;;;;;;;1.85;1.20;;;;;;;;;;5006232;28;20552;-82
2024/02/24 08:45:02;;;;;;;2.00;1.40;;;;;;;;;;5000940;28;20270;-82
2024/02/24 08:47:28;;;;;;;3.53;2.03;;;;;;;;;;4997729;28;20446;-82
2024/02/24 08:49:54;;;;;;;2.03;0.80;;;;;;;;;;4986361;28;20179;-83
2024/02/24 08:52:20;;;;;;;2.10;0.70;;;;;;;;;;4997837;28;20556;-82
2024/02/24 08:54:46;;;;;;;0.80;0.60;;;;;;;;;;5004909;28;20441;-82
2024/02/24 08:57:12;;;;;;;1.20;0.73;;;;;;;;;;4998916;28;20185;-83
2024/02/24 08:59:38;;;;;;;0.93;0.83;;;;;;;;;;4974265;28;20451;-82
2024/02/24 09:02:04;;;;;;;0.93;0.65;;;;;;;;;;4981949;28;20438;-82
2024/02/24 09:04:30;;;;;;;1.15;0.70;;;;;;;;;;5006919;28;20193;-82
2024/02/24 09:06:56;;;;;;;0.80;0.60;;;;;;;;;;4995733;28;20315;-82
2024/02/24 09:09:22;;;;;;;0.83;0.67;;;;;;;;;;4997482;28;20431;-81
2024/02/24 09:11:49;;;;;;;1.10;0.60;;;;;;;;;;4998080;28;20526;-82
2024/02/24 09:14:15;;;;;;;1.20;0.80;;;;;;;;;;4997474;28;20500;-82
2024/02/24 09:16:41;;;;;;;0.80;0.60;;;;;;;;;;5005785;28;20642;-80
2024/02/24 09:19:07;;;;;;;0.60;0.50;;;;;;;;;;4998071;28;20237;-82
2024/02/24 09:21:33;;;;;;;1.03;0.77;;;;;;;;;;4996686;28;20187;-82
2024/02/24 09:23:59;;;;;;;1.20;0.87;;;;;;;;;;5003115;28;20454;-81
2024/02/24 09:26:25;;;;;;;0.80;0.60;;;;;;;;;;5000808;28;20426;-82
2024/02/24 09:28:51;;;;;;;0.80;0.50;;;;;;;;;;5006815;28;20475;-81
2024/02/24 09:31:17;;;;;;;0.85;0.60;;;;;;;;;;5000674;28;20435;-81
2024/02/24 09:33:43;;;;;;;3.63;0.85;;;;;;;;;;4997855;28;20230;-81
2024/02/24 09:36:09;;;;;;;1.37;0.60;;;;;;;;;;4979002;28;20549;-81
2024/02/24 09:38:35;;;;;;;1.63;0.60;;;;;;;;;;4995613;28;20439;-81
2024/02/24 09:41:01;;;;;;;1.00;0.70;;;;;;;;;;4998468;28;20505;-81
2024/02/24 09:43:27;;;;;;;2.80;0.97;;;;;;;;;;5004586;28;20481;-82
2024/02/24 09:45:54;;;;;;;1.00;0.63;;;;;;;;;;4997011;28;20454;-81
2024/02/24 09:48:21;;;;;;;1.02;0.60;;;;;;;;;;4997353;28;20599;-82
2024/02/24 09:50:47;;;;;;;1.25;1.00;;;;;;;;;;4997222;28;20194;-82
2024/02/24 09:53:13;;;;;;;2.60;1.23;;;;;;;;;;4997143;28;20207;-82
2024/02/24 09:55:39;;;;;;;1.23;0.68;;;;;;;;;;4997318;28;20484;-82
2024/02/24 09:58:06;;;;;;;4.10;1.10;;;;;;;;;;4997070;28;20215;-82
2024/02/24 10:00:33;;;;;;;1.10;0.60;;;;;;;;;;4986631;28;20227;-82
2024/02/24 10:02:59;;;;;;;1.00;0.70;;;;;;;;;;4993230;28;20269;-82
2024/02/24 10:05:26;;;;;;;0.93;0.60;;;;;;;;;;4994526;28;20187;-82
2024/02/24 10:07:52;;;;;;;2.65;0.90;;;;;;;;;;4981001;28;20238;-81
2024/02/24 10:10:18;;;;;;;0.70;0.60;;;;;;;;;;4980018;28;20176;-81
2024/02/24 10:13:02;;;;;;;0.80;0.63;;;;;;;;;;4997257;28;20853;-89
2024/02/24 10:15:29;;;;;;;1.88;0.70;;;;;;;;;;4997808;28;20258;-89
2024/02/24 10:17:55;;;;;;;1.75;0.70;;;;;;;;;;4974454;28;20183;-89
2024/02/24 10:20:21;;;;;;;3.28;0.77;;;;;;;;;;4997880;28;20554;-81
2024/02/24 10:22:47;;;;;;;1.40;0.77;;;;;;;;;;5000118;28;20180;-81
2024/02/24 10:25:14;;;;;;;2.00;0.82;;;;;;;;;;5006833;28;20427;-81
2024/02/24 10:27:41;;;;;;;2.10;0.60;;;;;;;;;;4999884;28;20211;-81
2024/02/24 10:30:07;;;;;;;1.08;0.70;;;;;;;;;;5004723;28;20539;-81
2024/02/24 10:32:36;;;;;;;1.48;1.00;;;;;;;;;;4995103;28;20191;-80
2024/02/24 10:35:05;;;;;;;1.25;0.70;;;;;;;;;;4997290;28;20266;-81
2024/02/24 10:37:34;;;;;;;1.20;0.80;;;;;;;;;;4989310;28;20678;-80
2024/02/24 10:40:04;;;;;;;2.08;0.80;;;;;;;;;;4999953;28;20188;-81
2024/02/24 10:42:30;;;;;;;2.22;0.77;;;;;;;;;;4993486;28;20192;-82
2024/02/24 10:44:57;;;;;;;0.75;0.55;;;;;;;;;;4999463;28;20190;-81
2024/02/24 10:47:23;;;;;;;1.65;0.70;;;;;;;;;;4997040;28;20596;-81
2024/02/24 10:49:49;;;;;;;1.15;0.80;;;;;;;;;;4996918;28;20557;-82
2024/02/24 10:52:17;;;;;;;0.70;0.60;;;;;;;;;;4995720;28;20268;-81
2024/02/24 10:54:43;;;;;;;0.70;0.50;;;;;;;;;;4997282;28;20429;-82
2024/02/24 10:57:10;;;;;;;3.65;0.75;;;;;;;;;;5009558;28;20175;-82
2024/02/24 10:59:36;;;;;;;1.65;0.80;;;;;;;;;;4988471;28;20186;-81
2024/02/24 11:02:03;;;;;;;2.00;0.70;;;;;;;;;;4994076;28;20183;-82
2024/02/24 11:04:30;;;;;;;0.90;0.70;;;;;;;;;;4996075;28;20237;-82
2024/02/24 11:06:56;;;;;;;0.80;0.60;;;;;;;;;;4996233;28;20722;-82
2024/02/24 11:09:31;;;;;;;0.82;0.60;;;;;;;;;;5002665;28;20181;-82
2024/02/24 11:12:09;;;;;;;1.40;0.90;;;;;;;;;;4994401;28;20193;-81
2024/02/24 11:14:39;;;;;;;1.52;0.90;;;;;;;;;;5002836;28;20269;-80
2024/02/24 11:17:05;;;;;;;1.60;0.65;;;;;;;;;;5003601;28;20600;-82
2024/02/24 11:19:44;;;;;;;1.33;0.90;;;;;;;;;;4997562;28;20194;-82
2024/02/24 11:22:29;;;;;;;0.80;0.70;;;;;;;;;;5006327;28;20547;-81
2024/02/24 11:25:02;;;;;;;2.40;1.70;;;;;;;;;;5000349;28;20248;-81
2024/02/24 11:27:34;;;;;;;1.10;0.60;;;;;;;;;;4977665;28;20939;-81
2024/02/24 11:30:20;;;;;;;1.02;0.70;;;;;;;;;;4997965;28;20282;-80
2024/02/24 11:32:46;;;;;;;1.17;0.80;;;;;;;;;;4998204;28;20195;-81
2024/02/24 11:35:13;;;;;;;0.80;0.57;;;;;;;;;;5000312;28;20203;-80
2024/02/24 11:37:40;;;;;;;0.80;0.50;;;;;;;;;;5000452;28;20274;-81
2024/02/24 11:40:06;;;;;;;1.17;0.60;;;;;;;;;;5007718;28;20273;-81
2024/02/24 11:42:32;;;;;;;1.00;0.70;;;;;;;;;;5000028;28;20191;-81
2024/02/24 11:44:59;;;;;;;2.30;0.90;;;;;;;;;;4999773;28;20203;-81
2024/02/24 11:47:27;;;;;;;0.90;0.63;;;;;;;;;;4999308;28;20182;-81
2024/02/24 11:49:55;;;;;;;0.85;0.73;;;;;;;;;;5004650;28;20183;-80
2024/02/24 11:52:21;;;;;;;1.50;0.60;;;;;;;;;;4998143;28;20650;-81
2024/02/24 11:54:47;;;;;;;1.88;0.80;;;;;;;;;;4999708;28;20318;-81
2024/02/24 11:57:13;;;;;;;3.45;0.73;;;;;;;;;;4998355;28;20504;-81
2024/02/24 11:59:40;;;;;;;0.88;0.80;;;;;;;;;;5001696;28;20183;-80
2024/02/24 12:02:06;;;;;;;1.63;0.95;;;;;;;;;;4999925;28;20180;-81
2024/02/24 12:04:32;;;;;;;2.30;0.80;;;;;;;;;;5002639;28;20190;-81
2024/02/24 12:07:01;;;;;;;0.80;0.70;;;;;;;;;;4999553;28;20560;-81
2024/02/24 12:09:27;;;;;;;2.05;0.70;;;;;;;;;;4999013;28;20183;-81
2024/02/24 12:11:55;;;;;;;3.17;0.80;;;;;;;;;;4998967;28;20186;-81
2024/02/24 12:14:21;;;;;;;0.70;0.60;;;;;;;;;;4998668;28;20482;-81
2024/02/24 12:16:47;;;;;;;2.53;0.90;;;;;;;;;;4998932;28;20618;-82
2024/02/24 12:19:13;;;;;;;0.68;0.50;;;;;;;;;;5004281;28;20804;-81
2024/02/24 12:21:41;;;;;;;0.93;0.63;;;;;;;;;;4999967;28;20275;-82
2024/02/24 12:24:07;;;;;;;3.30;0.70;;;;;;;;;;4998651;28;20253;-81
2024/02/24 12:26:33;;;;;;;1.52;0.90;;;;;;;;;;4996042;28;20640;-80
2024/02/24 12:28:59;;;;;;;2.17;0.73;;;;;;;;;;4998308;28;20530;-81
2024/02/24 12:31:25;;;;;;;1.80;0.70;;;;;;;;;;5000139;28;20258;-81
2024/02/24 12:33:51;;;;;;;0.93;0.70;;;;;;;;;;5004435;28;20567;-81
2024/02/24 12:36:17;;;;;;;1.30;0.60;;;;;;;;;;4995353;28;20195;-81
2024/02/24 12:38:44;;;;;;;1.98;0.80;;;;;;;;;;4999088;28;20189;-80
2024/02/24 12:41:10;;;;;;;0.90;0.70;;;;;;;;;;5007511;28;20526;-80
2024/02/24 12:43:38;;;;;;;1.10;0.73;;;;;;;;;;5009188;28;20282;-81
2024/02/24 12:46:04;;;;;;;5.43;1.00;;;;;;;;;;4999450;28;20262;-81
2024/02/24 12:48:30;;;;;;;1.10;0.70;;;;;;;;;;4998828;28;20186;-81
2024/02/24 12:51:00;;;;;;;0.70;0.50;;;;;;;;;;5002072;28;20190;-80
2024/02/24 12:53:26;;;;;;;1.60;0.80;;;;;;;;;;4997939;28;20265;-80
2024/02/24 12:55:53;;;;;;;2.40;1.17;;;;;;;;;;5001234;28;20655;-80
2024/02/24 12:58:20;;;;;;;2.75;0.70;;;;;;;;;;4999240;28;20211;-81
2024/02/24 13:00:47;;;;;;;2.17;0.75;;;;;;;;;;5004487;28;20183;-80
2024/02/24 13:03:13;;;;;;;3.20;1.42;;;;;;;;;;4995567;28;20191;-82
2024/02/24 13:05:39;;;;;;;2.78;0.82;;;;;;;;;;4998050;28;20188;-81
2024/02/24 13:08:05;;;;;;;1.15;0.90;;;;;;;;;;4996849;28;20591;-81
2024/02/24 13:10:31;;;;;;;2.88;0.93;;;;;;;;;;4997495;28;20194;-81
2024/02/24 13:12:57;;;;;;;4.00;1.00;;;;;;;;;;5002159;28;20220;-81
2024/02/24 13:15:24;;;;;;;1.33;0.85;;;;;;;;;;4993983;28;20945;-82
2024/02/24 13:17:50;;;;;;;1.20;0.63;;;;;;;;;;4996153;28;20179;-81
2024/02/24 13:20:16;;;;;;;1.90;0.90;;;;;;;;;;4996472;28;20190;-81
2024/02/24 13:22:42;;;;;;;2.60;0.90;;;;;;;;;;5001808;28;20183;-81
2024/02/24 13:25:09;;;;;;;1.20;0.90;;;;;;;;;;4998196;28;20178;-81
2024/02/24 13:27:35;;;;;;;1.08;0.80;;;;;;;;;;4999580;28;20431;-81
2024/02/24 13:30:01;;;;;;;1.35;0.90;;;;;;;;;;4982393;28;20196;-81
2024/02/24 13:32:27;;;;;;;0.80;0.65;;;;;;;;;;5000315;28;20194;-81
2024/02/24 13:34:53;;;;;;;1.58;0.80;;;;;;;;;;4996409;28;20251;-81
2024/02/24 13:37:19;;;;;;;1.92;0.80;;;;;;;;;;4983822;28;20247;-80
2024/02/24 13:39:46;;;;;;;2.00;0.60;;;;;;;;;;4995527;28;20191;-81
2024/02/24 13:42:13;;;;;;;3.67;0.80;;;;;;;;;;4995559;28;20438;-81
2024/02/24 13:44:39;;;;;;;1.20;0.70;;;;;;;;;;5001856;28;20203;-81
2024/02/24 13:47:06;;;;;;;2.50;0.70;;;;;;;;;;4993859;28;20195;-80
2024/02/24 13:49:32;;;;;;;1.77;0.90;;;;;;;;;;4995989;28;20437;-81
2024/02/24 13:51:58;;;;;;;1.05;0.70;;;;;;;;;;4997610;28;20197;-80
2024/02/24 13:54:28;;;;;;;1.10;0.70;;;;;;;;;;4999853;28;20218;-79
2024/02/24 13:56:55;;;;;;;0.80;0.70;;;;;;;;;;4988533;28;20698;-81
2024/02/24 13:59:21;;;;;;;1.75;0.85;;;;;;;;;;4999635;28;20187;-80
2024/02/24 14:01:50;;;;;;;2.75;1.70;;;;;;;;;;4998073;28;20245;-81
2024/02/24 14:04:17;;;;;;;3.38;2.28;;;;;;;;;;5009276;28;20187;-81
2024/02/24 14:06:43;;;;;;;1.35;0.77;;;;;;;;;;4978602;28;20693;-80
2024/02/24 14:09:09;;;;;;;0.90;0.60;;;;;;;;;;5005804;28;20188;-81
2024/02/24 14:11:36;;;;;;;1.25;0.80;;;;;;;;;;4996457;28;20231;-81
2024/02/24 14:14:02;;;;;;;1.45;0.95;;;;;;;;;;4997827;28;20555;-81
2024/02/24 14:16:28;;;;;;;2.08;1.70;;;;;;;;;;5000681;28;20191;-81
2024/02/24 14:18:54;;;;;;;2.08;1.05;;;;;;;;;;4996809;28;20184;-80
2024/02/24 14:21:21;;;;;;;3.00;1.35;;;;;;;;;;4997229;28;20182;-81
2024/02/24 14:23:47;;;;;;;3.90;1.92;;;;;;;;;;4995422;28;20183;-81
2024/02/24 14:26:13;;;;;;;1.00;0.73;;;;;;;;;;4997117;28;20235;-81
2024/02/24 14:28:39;;;;;;;1.97;0.77;;;;;;;;;;4997445;28;20838;-81
2024/02/24 14:31:05;;;;;;;2.50;1.60;;;;;;;;;;4997021;28;20499;-81
2024/02/24 14:33:30;;;;;;;7.33;1.17;;;;;;;;;;4974459;28;20548;-85
2024/02/24 14:35:56;;;;;;;5.03;1.23;;;;;;;;;;4994510;28;20440;-85
2024/02/24 14:38:22;;;;;;;3.53;1.10;;;;;;;;;;4982695;28;20423;-86